Abis Bremen — PCJO — position and weather

sailwx.info

Track history (hours):
 
Tides and Currents Weather Stations Pressure Air Temp Water Temp Dewpoint Dewpoint Depression Visibility Wind Speed Wind Dir Waves Ship Positions

Abis Bremen

Last reported at 2017-Jun-26 10:30 UTC. Time now 2017-Jun-26 10:36 UTC.
Position N 49°57' W 002°57'.

Length 90 m; draft 5.2 m.

Type: Ship. MMSI: 246778880.

Date/timePositionNaut miles runAvg speedWind from/ knotsBaromVisibWave heightAir tempDewpointWater temp
2017-Jun-26 10:30N 49°57' W 002°57'5 9.3
2017-Jun-26 09:57N 49°58' W 002°49'11 8.3
2017-Jun-26 08:34N 50°02' W 002°32'2 8.1
2017-Jun-26 08:19N 50°02' W 002°29'3 8.2
2017-Jun-26 07:57N 50°03' W 002°25'4 8.5
2017-Jun-26 07:30N 50°04' W 002°19'5 9.1
2017-Jun-26 06:55N 50°06' W 002°11'4 9.9
2017-Jun-26 06:30N 50°07' W 002°05'510.8
2017-Jun-26 06:00N 50°09' W 001°57'611.9
2017-Jun-26 05:30N 50°11' W 001°48'612.8
2017-Jun-26 05:00N 50°12' W 001°39'713.6
2017-Jun-26 04:30N 50°14' W 001°28'714.1
2017-Jun-26 04:00N 50°16' W 001°18'714.4
2017-Jun-26 03:30N 50°19' W 001°07'714.8
2017-Jun-26 03:00N 50°21' W 000°56'713.8
2017-Jun-26 02:30N 50°23' W 000°46'713.1
2017-Jun-26 01:56N 50°25' W 000°34'712.4
2017-Jun-26 01:24N 50°27' W 000°24'511.7
2017-Jun-26 01:00N 50°28' W 000°17'910.7
2017-Jun-26 00:11N 50°31' W 000°04'2 9.8
2017-Jun-25 23:59N 50°31' W 000°01'4 9.4
2017-Jun-25 23:30N 50°33' E 000°05'4 8.8
2017-Jun-25 23:00N 50°34' E 000°12'4 8.1
2017-Jun-25 22:30N 50°35' E 000°18'4 7.6
2017-Jun-25 22:00N 50°36' E 000°24'4 7.5
2017-Jun-25 21:30N 50°37' E 000°29'4 8.0
2017-Jun-25 21:01N 50°39' E 000°35'4 8.7
2017-Jun-25 20:30N 50°41' E 000°41'5 9.7
2017-Jun-25 20:00N 50°44' E 000°47'1311.0
2017-Jun-25 18:47N 50°52' E 001°04'412.0
2017-Jun-25 18:28N 50°55' E 001°09'510.5
2017-Jun-25 18:00N 50°58' E 001°15'510.8
2017-Jun-25 17:30N 51°01' E 001°21'510.0
2017-Jun-25 17:00N 51°04' E 001°27'4 8.9
2017-Jun-25 16:30N 51°07' E 001°33'4 8.0
2017-Jun-25 16:00N 51°10' E 001°37'4 7.4
2017-Jun-25 15:30N 51°14' E 001°38'4 8.6
2017-Jun-25 15:00N 51°18' E 001°36'4 8.5
2017-Jun-25 14:30N 51°22' E 001°34'10 9.8
2017-Jun-25 13:29N 51°28' E 001°21'510.1
2017-Jun-25 13:00N 51°29' E 001°14'5 9.9
2017-Jun-25 12:30N 51°29' E 001°06'5 9.7
2017-Jun-25 12:00N 51°29' E 000°58'4 8.8
2017-Jun-25 11:30N 51°28' E 000°51'4 8.9
2017-Jun-25 11:00N 51°27' E 000°44'3 5.0
2017-Jun-25 10:30N 51°24' E 000°43'2 0.6
2017-Jun-25 07:39N 51°23' E 000°46'0 0.0
2017-Jun-25 07:12N 51°23' E 000°46'0 0.0
2017-Jun-25 06:51N 51°23' E 000°46'0 0.0
2017-Jun-25 06:18N 51°23' E 000°46'0 0.0
2017-Jun-25 05:48N 51°23' E 000°46'0 0.0
2017-Jun-25 05:03N 51°23' E 000°46'0 0.0
2017-Jun-25 04:45N 51°23' E 000°46'0 0.0
2017-Jun-24 17:21N 51°23' E 000°46'0 0.0
2017-Jun-24 17:00N 51°23' E 000°46'0 0.0
2017-Jun-24 16:30N 51°23' E 000°46'0 0.0
2017-Jun-24 15:59N 51°23' E 000°46'0 0.0
2017-Jun-24 15:28N 51°23' E 000°46'0 0.0
2017-Jun-24 14:59N 51°23' E 000°46'0 0.0
2017-Jun-24 14:25N 51°23' E 000°46'0 0.0
2017-Jun-24 11:42N 51°23' E 000°46'0 0.6
2017-Jun-24 11:30N 51°23' E 000°46'2 4.7
2017-Jun-24 11:01N 51°25' E 000°43'3 6.6
2017-Jun-24 10:31N 51°28' E 000°46'510.8
2017-Jun-24 10:01N 51°30' E 000°54'2 4.6
2017-Jun-24 09:30N 51°30' E 000°58'0 0.3
2017-Jun-24 08:52N 51°30' E 000°58'0 0.2
2017-Jun-24 07:58N 51°30' E 000°58'0 0.2
2017-Jun-24 07:28N 51°30' E 000°58'0 0.0
2017-Jun-24 06:58N 51°30' E 000°58'0 0.0
2017-Jun-24 06:28N 51°30' E 000°58'0 0.0
2017-Jun-24 05:58N 51°30' E 000°58'0 0.0
2017-Jun-24 05:22N 51°30' E 000°58'0 0.0
2017-Jun-24 04:58N 51°30' E 000°58'0 0.0
2017-Jun-24 04:28N 51°30' E 000°58'0 0.0
2017-Jun-24 03:40N 51°30' E 000°58'0 0.0
2017-Jun-24 03:20N 51°30' E 000°58'0 0.3
2017-Jun-24 03:00N 51°30' E 000°58'0 0.1
2017-Jun-24 02:29N 51°30' E 000°59'0 0.1
2017-Jun-24 01:59N 51°30' E 000°59'0 0.0
2017-Jun-24 01:23N 51°30' E 000°59'0 0.1
2017-Jun-24 00:59N 51°30' E 000°59'0 0.0
2017-Jun-24 00:08N 51°30' E 000°59'0 0.2
2017-Jun-23 23:53N 51°30' E 000°58'0 0.2
2017-Jun-23 23:29N 51°30' E 000°58'0 0.0
2017-Jun-23 22:59N 51°30' E 000°58'0 0.0
2017-Jun-23 22:29N 51°30' E 000°58'0 0.0
2017-Jun-23 21:59N 51°30' E 000°58'0 0.0
2017-Jun-23 21:29N 51°30' E 000°58'0 0.0
2017-Jun-23 20:59N 51°30' E 000°58'0 0.0
2017-Jun-23 20:29N 51°30' E 000°58'0 0.0
2017-Jun-23 19:59N 51°30' E 000°58'0 0.1
2017-Jun-23 19:29N 51°30' E 000°58'0 0.3
2017-Jun-23 18:59N 51°30' E 000°58'0 0.1
2017-Jun-23 18:23N 51°30' E 000°59'0 0.0
2017-Jun-23 17:59N 51°30' E 000°59'0 0.0
2017-Jun-23 17:29N 51°30' E 000°59'0 0.1
2017-Jun-23 16:59N 51°30' E 000°59'0 0.0
2017-Jun-23 16:29N 51°30' E 000°59'0 0.0
2017-Jun-23 16:00N 51°30' E 000°59'0 0.1
2017-Jun-23 15:30N 51°30' E 000°58'0 0.0
2017-Jun-23 15:00N 51°30' E 000°58'4 3.5
2017-Jun-23 13:59N 51°33' E 001°03'4 7.2
2017-Jun-23 13:30N 51°34' E 001°08'4 7.2
2017-Jun-23 13:00N 51°36' E 001°13'4 7.4
2017-Jun-23 12:30N 51°39' E 001°16'4 7.2
2017-Jun-23 12:00N 51°42' E 001°21'4 7.7
2017-Jun-23 11:30N 51°44' E 001°25'4 8.4
2017-Jun-23 11:00N 51°47' E 001°30'5 9.0
2017-Jun-23 10:30N 51°50' E 001°36'5 9.6
2017-Jun-23 10:00N 51°53' E 001°42'510.1
2017-Jun-23 09:30N 51°57' E 001°46'510.7
2017-Jun-23 09:00N 51°60' E 001°54'510.7
2017-Jun-23 08:30N 52°03' E 002°01'510.9
2017-Jun-23 08:00N 52°05' E 002°09'510.9
2017-Jun-23 07:30N 52°08' E 002°16'510.2
2017-Jun-23 06:58N 52°11' E 002°24'2610.3
2017-Jun-23 04:29N 52°25' E 002°60'5 9.5
2017-Jun-23 03:56N 52°28' E 003°07'7 9.2
2017-Jun-23 03:12N 52°31' E 003°16'4 8.9
2017-Jun-23 02:46N 52°33' E 003°22'2 8.5
2017-Jun-23 02:28N 52°35' E 003°25'5 8.5
2017-Jun-23 01:55N 52°38' E 003°30'5 8.3
2017-Jun-23 01:19N 52°42' E 003°35'3 8.2
2017-Jun-23 00:59N 52°44' E 003°38'4 8.2
2017-Jun-23 00:29N 52°47' E 003°43'4 8.5
2017-Jun-22 23:58N 52°50' E 003°48'5 9.1
2017-Jun-22 23:26N 52°53' E 003°54'7 9.6
2017-Jun-22 22:42N 52°58' E 004°03'2 9.8
2017-Jun-22 22:29N 52°59' E 004°05'5 9.8
2017-Jun-22 21:57N 53°03' E 004°12'5 9.5
2017-Jun-22 21:28N 53°06' E 004°18'5 9.5
2017-Jun-22 20:59N 53°09' E 004°24'5 9.4
2017-Jun-22 20:30N 53°13' E 004°28'6 9.7
2017-Jun-22 19:55N 53°18' E 004°31'6 9.6
2017-Jun-22 19:19N 53°23' E 004°35'4 9.2
2017-Jun-22 18:50N 53°27' E 004°38'3 8.3
2017-Jun-22 18:30N 53°28' E 004°42'4 8.2
2017-Jun-22 18:00N 53°30' E 004°48'4 8.0
2017-Jun-22 17:30N 53°31' E 004°54'4 8.1
2017-Jun-22 17:00N 53°33' E 005°01'4 7.9
2017-Jun-22 16:30N 53°34' E 005°07'7 7.7
2017-Jun-22 15:36N 53°37' E 005°18'1 8.0
2017-Jun-22 15:29N 53°37' E 005°20'4 8.3
2017-Jun-22 14:57N 53°38' E 005°27'4 9.0
2017-Jun-22 14:30N 53°39' E 005°33'1010.0
2017-Jun-22 13:30N 53°42' E 005°49'510.5
2017-Jun-22 13:00N 53°44' E 005°57'610.8
2017-Jun-22 12:29N 53°46' E 006°07'510.9
2017-Jun-22 12:00N 53°47' E 006°15'710.5
2017-Jun-22 11:22N 53°49' E 006°26'410.6
2017-Jun-22 10:57N 53°51' E 006°33'510.6
2017-Jun-22 10:30N 53°52' E 006°41'510.5
2017-Jun-22 10:00N 53°53' E 006°49'22 9.5
2017-Jun-22 07:39N 53°59' E 007°26'1 8.1
2017-Jun-22 07:29N 53°59' E 007°28'4 8.0
2017-Jun-22 06:59N 54°00' E 007°35'4 8.1
2017-Jun-22 06:30N 54°01' E 007°41'4 8.3
2017-Jun-22 06:00N 54°01' E 007°48'4 8.5
2017-Jun-22 05:30N 54°01' E 007°56'4 8.7
2017-Jun-22 05:00N 54°01' E 008°03'4 8.5
2017-Jun-22 04:30N 54°00' E 008°10'5 9.3
2017-Jun-22 04:00N 53°60' E 008°18'611.1
2017-Jun-22 03:30N 53°59' E 008°27'611.7
2017-Jun-22 03:00N 53°58' E 008°37'612.9
2017-Jun-22 02:31N 53°52' E 008°43'612.1
2017-Jun-22 02:01N 53°51' E 008°53'612.4
2017-Jun-22 01:30N 53°52' E 009°03'510.9
2017-Jun-22 01:00N 53°53' E 009°13'510.1
2017-Jun-22 00:30N 53°51' E 009°20'5 9.4
2017-Jun-22 00:00N 53°46' E 009°24'4 8.4
2017-Jun-21 23:30N 53°43' E 009°28'4 7.8
2017-Jun-21 23:00N 53°40' E 009°31'4 7.5
2017-Jun-21 22:30N 53°37' E 009°35'4 7.1
2017-Jun-21 22:00N 53°34' E 009°39'3 6.7
2017-Jun-21 21:30N 53°34' E 009°45'3 6.2
2017-Jun-21 21:00N 53°33' E 009°50'3 6.1
2017-Jun-21 20:30N 53°32' E 009°55'4 7.3
2017-Jun-21 20:00N 53°29' E 009°57'1 1.6
2017-Jun-21 19:29N 53°29' E 009°58'0 0.0
2017-Jun-21 18:59N 53°29' E 009°58'0 0.0
2017-Jun-21 18:29N 53°29' E 009°58'0 0.0
2017-Jun-21 17:59N 53°29' E 009°58'0 0.0
2017-Jun-21 17:29N 53°29' E 009°58'0 0.2
2017-Jun-21 16:59N 53°28' E 009°58'0 0.0
2017-Jun-21 16:29N 53°28' E 009°58'0 0.0
2017-Jun-21 15:59N 53°28' E 009°58'0 0.0
2017-Jun-21 15:29N 53°28' E 009°58'0 0.0
2017-Jun-21 14:59N 53°28' E 009°58'0 0.0
2017-Jun-21 14:29N 53°28' E 009°58'0 0.0
2017-Jun-21 13:29N 53°28' E 009°58'0 0.0
2017-Jun-21 12:59N 53°28' E 009°58'0 0.0
2017-Jun-21 12:29N 53°28' E 009°58'0 0.0
2017-Jun-21 11:59N 53°28' E 009°58'0 0.0
2017-Jun-21 11:29N 53°28' E 009°58'0 0.0
2017-Jun-21 10:59N 53°28' E 009°58'0 0.0
2017-Jun-21 10:29N 53°28' E 009°58'0 0.0
2017-Jun-21 09:59N 53°28' E 009°58'0 0.0
2017-Jun-21 09:29N 53°28' E 009°58'0 0.0
2017-Jun-21 08:59N 53°28' E 009°58'0 0.0
2017-Jun-21 08:29N 53°28' E 009°58'0 0.0
2017-Jun-21 07:59N 53°28' E 009°58'0 0.0
2017-Jun-21 07:30N 53°28' E 009°58'0 0.0
2017-Jun-21 07:00N 53°28' E 009°58'0 0.6
2017-Jun-21 06:30N 53°29' E 009°58'2 3.1
2017-Jun-21 06:00N 53°30' E 009°57'2 4.2
2017-Jun-21 05:30N 53°32' E 009°56'4 7.6
2017-Jun-21 05:01N 53°33' E 009°50'5 9.1
2017-Jun-21 04:30N 53°34' E 009°42'5 9.1
2017-Jun-21 04:00N 53°36' E 009°36'2 3.9
2017-Jun-21 03:30N 53°37' E 009°33'0 0.0
2017-Jun-21 03:00N 53°37' E 009°33'0 0.5
2017-Jun-21 02:30N 53°37' E 009°33'2 3.4
2017-Jun-21 02:01N 53°39' E 009°31'4 8.9
2017-Jun-21 01:30N 53°43' E 009°29'4 8.9
2017-Jun-21 01:01N 53°46' E 009°24'4 8.9
2017-Jun-21 00:31N 53°50' E 009°21'5 9.3
2017-Jun-21 00:00N 53°53' E 009°14'4 8.5
2017-Jun-20 23:30N 53°53' E 009°07'5 9.1
2017-Jun-20 23:00N 53°51' E 008°59'5 9.7
2017-Jun-20 22:30N 53°50' E 008°51'5 9.5
2017-Jun-20 22:00N 53°52' E 008°44'510.2
2017-Jun-20 21:30N 53°56' E 008°39'20 9.4
2017-Jun-20 19:20N 53°60' E 008°05'3 6.9
2017-Jun-20 18:54N 54°02' E 008°07'1 0.1
2017-Jun-20 13:42N 54°03' E 008°08'0 0.0
2017-Jun-20 13:30N 54°03' E 008°08'0 0.0
2017-Jun-20 11:00N 54°03' E 008°08'0 0.0
2017-Jun-20 10:30N 54°03' E 008°08'0 0.0
2017-Jun-20 10:00N 54°03' E 008°08'0 0.0
2017-Jun-20 09:21N 54°03' E 008°08'0 0.0
2017-Jun-20 08:54N 54°03' E 008°08'0 0.0
2017-Jun-20 08:27N 54°03' E 008°08'0 0.0
2017-Jun-20 07:51N 54°03' E 008°08'0 0.0
2017-Jun-20 07:27N 54°03' E 008°08'0 0.0
2017-Jun-20 03:54N 54°03' E 008°08'0 0.1
2017-Jun-20 03:24N 54°03' E 008°08'0 0.0
2017-Jun-20 00:03N 54°03' E 008°08'0 0.0
2017-Jun-19 23:54N 54°03' E 008°08'0 0.0
2017-Jun-19 23:30N 54°03' E 008°08'0 0.0
2017-Jun-19 23:00N 54°03' E 008°08'0 0.0
2017-Jun-19 22:24N 54°03' E 008°08'0 0.0
2017-Jun-19 22:00N 54°03' E 008°08'0 0.0
2017-Jun-19 21:15N 54°03' E 008°08'0 0.0
2017-Jun-19 21:00N 54°03' E 008°08'0 0.0
2017-Jun-19 20:12N 54°03' E 008°08'0 0.0
2017-Jun-19 20:00N 54°03' E 008°08'0 0.0
2017-Jun-19 19:30N 54°03' E 008°08'0 0.0
2017-Jun-19 17:36N 54°03' E 008°08'0 0.0
2017-Jun-19 17:21N 54°03' E 008°08'0 0.0
2017-Jun-19 16:57N 54°03' E 008°08'0 0.0
2017-Jun-19 08:06N 54°03' E 008°08'0 0.0
2017-Jun-19 07:57N 54°03' E 008°08'0 0.0
2017-Jun-19 07:24N 54°03' E 008°08'0 0.0
2017-Jun-19 06:57N 54°03' E 008°08'0 0.0
2017-Jun-19 06:27N 54°03' E 008°08'0 0.0
2017-Jun-19 06:00N 54°03' E 008°08'0 0.0
2017-Jun-19 05:31N 54°03' E 008°08'3 4.6
2017-Jun-19 04:55N 54°02' E 008°04'3 6.7
2017-Jun-19 04:31N 53°60' E 008°01'4 7.4
2017-Jun-19 03:59N 53°57' E 007°55'4 8.7
2017-Jun-19 03:28N 53°56' E 007°48'4 9.0
2017-Jun-19 02:59N 53°55' E 007°41'59 7.7
2017-Jun-18 19:16N 53°41' E 006°04'3 6.4
2017-Jun-18 18:48N 53°40' E 005°59'2 6.3
2017-Jun-18 18:30N 53°39' E 005°56'3 6.4
2017-Jun-18 18:00N 53°38' E 005°51'3 6.8
2017-Jun-18 17:30N 53°37' E 005°46'4 7.1
2017-Jun-18 16:59N 53°36' E 005°40'4 7.6
2017-Jun-18 16:29N 53°35' E 005°34'6 7.7
2017-Jun-18 15:44N 53°33' E 005°24'2 7.7
2017-Jun-18 15:31N 53°32' E 005°22'4 7.8
2017-Jun-18 14:59N 53°31' E 005°15'9 8.6
2017-Jun-18 13:59N 53°28' E 005°02'4 9.2
2017-Jun-18 13:30N 53°26' E 004°55'7 9.1
2017-Jun-18 12:43N 53°23' E 004°44'2 7.9
2017-Jun-18 12:30N 53°22' E 004°42'5 9.1
2017-Jun-18 12:00N 53°18' E 004°39'5 9.5
2017-Jun-18 11:30N 53°13' E 004°36'5 9.6
2017-Jun-18 11:01N 53°09' E 004°32'5 9.5
2017-Jun-18 10:31N 53°05' E 004°28'5 9.2
2017-Jun-18 10:01N 53°01' E 004°24'5 9.0
2017-Jun-18 09:30N 52°57' E 004°21'5 9.2
2017-Jun-18 09:00N 52°53' E 004°18'4 8.8
2017-Jun-18 08:31N 52°49' E 004°14'4 8.5
2017-Jun-18 08:01N 52°46' E 004°09'4 8.4
2017-Jun-18 07:30N 52°43' E 004°05'4 8.4
2017-Jun-18 07:00N 52°40' E 003°60'510.0
2017-Jun-18 06:30N 52°36' E 003°54'4 8.7
2017-Jun-18 06:00N 52°33' E 003°49'4 8.1
2017-Jun-18 05:30N 52°30' E 003°44'4 7.9
2017-Jun-18 04:59N 52°27' E 003°39'4 7.8
2017-Jun-18 04:30N 52°25' E 003°35'4 7.5
2017-Jun-18 04:00N 52°22' E 003°31'4 7.4
2017-Jun-18 03:30N 52°20' E 003°27'4 7.2
2017-Jun-18 03:00N 52°17' E 003°22'4 7.2
2017-Jun-18 02:27N 52°14' E 003°18'3 7.1
2017-Jun-18 02:00N 52°12' E 003°14'4 7.1
2017-Jun-18 01:30N 52°09' E 003°10'4 7.3
2017-Jun-18 01:00N 52°07' E 003°06'4 7.6
2017-Jun-18 00:28N 52°04' E 003°02'4 7.8
2017-Jun-18 00:01N 52°01' E 002°58'4 7.8
2017-Jun-17 23:30N 51°58' E 002°54'4 8.0
2017-Jun-17 22:57N 51°54' E 002°49'11 8.7
2017-Jun-17 21:40N 51°46' E 002°38'1 8.8
2017-Jun-17 21:30N 51°45' E 002°36'4 9.0
2017-Jun-17 21:00N 51°41' E 002°32'4 8.9
2017-Jun-17 20:31N 51°38' E 002°27'5 9.2
2017-Jun-17 20:01N 51°34' E 002°23'5 9.5
2017-Jun-17 19:30N 51°30' E 002°18'5 9.2
2017-Jun-17 19:01N 51°26' E 002°14'5 9.5
2017-Jun-17 18:30N 51°23' E 002°10'5 9.8
2017-Jun-17 18:01N 51°18' E 002°07'5 9.9
2017-Jun-17 17:30N 51°14' E 002°03'5 9.9
2017-Jun-17 17:00N 51°12' E 001°56'5 9.8
2017-Jun-17 16:30N 51°09' E 001°49'5 9.5
2017-Jun-17 16:00N 51°06' E 001°43'4 9.0
2017-Jun-17 15:30N 51°03' E 001°37'4 8.6
2017-Jun-17 15:01N 51°01' E 001°32'7 7.4
2017-Jun-17 14:00N 50°55' E 001°25'4 7.1
2017-Jun-17 13:30N 50°51' E 001°23'3 6.9
2017-Jun-17 13:00N 50°48' E 001°22'3 6.8
2017-Jun-17 12:30N 50°45' E 001°20'4 6.4
2017-Jun-17 11:58N 50°42' E 001°18'28 7.6
2017-Jun-17 08:14N 50°28' E 000°38'3 7.7
2017-Jun-17 07:51N 50°27' E 000°34'18 8.5
2017-Jun-17 05:43N 50°23' E 000°07'2 9.1
2017-Jun-17 05:30N 50°22' E 000°04'5 9.3
2017-Jun-17 05:01N 50°21' W 000°03'5 9.4
2017-Jun-17 04:30N 50°20' W 000°11'5 9.6
2017-Jun-17 04:01N 50°18' W 000°18'510.0
2017-Jun-17 03:31N 50°17' W 000°25'510.5
2017-Jun-17 03:00N 50°16' W 000°33'510.8
2017-Jun-17 02:30N 50°14' W 000°42'611.4
2017-Jun-17 02:01N 50°13' W 000°50'611.7
2017-Jun-17 01:31N 50°11' W 000°59'612.0
2017-Jun-17 01:01N 50°10' W 001°08'612.0
2017-Jun-17 00:31N 50°08' W 001°17'612.1
2017-Jun-17 00:01N 50°06' W 001°26'611.8
2017-Jun-16 23:30N 50°05' W 001°35'611.7
2017-Jun-16 23:01N 50°03' W 001°44'611.2
2017-Jun-16 22:30N 50°02' W 001°52'610.8
2017-Jun-16 21:59N 50°01' W 002°01'510.3
2017-Jun-16 21:30N 49°59' W 002°08'10 9.4
2017-Jun-16 20:24N 49°56' W 002°24'3 8.4
2017-Jun-16 20:00N 49°55' W 002°29'4 8.0
2017-Jun-16 19:30N 49°54' W 002°34'4 7.8
2017-Jun-16 19:01N 49°53' W 002°40'4 7.7
2017-Jun-16 18:31N 49°52' W 002°46'4 7.8
2017-Jun-16 18:01N 49°51' W 002°52'4 8.2
2017-Jun-16 17:31N 49°51' W 002°58'4 8.5
2017-Jun-16 17:01N 49°52' W 003°05'4 8.8
2017-Jun-16 16:31N 49°53' W 003°11'5 9.0
2017-Jun-16 16:00N 49°54' W 003°18'5 9.0
2017-Jun-16 15:31N 49°55' W 003°25'5 9.1
2017-Jun-16 15:01N 49°57' W 003°32'5 9.4
2017-Jun-16 14:31N 49°58' W 003°39'11 9.7
2017-Jun-16 13:22N 50°00' W 003°56'4 9.9
2017-Jun-16 13:00N 50°01' W 004°01'5 9.9
2017-Jun-16 12:31N 50°02' W 004°08'510.0
2017-Jun-16 12:01N 50°03' W 004°16'510.0
2017-Jun-16 11:30N 50°05' W 004°24'510.1
2017-Jun-16 11:00N 50°06' W 004°31'510.0
2017-Jun-16 10:31N 50°07' W 004°39'  
Track history (hours):
 
Tides and Currents Weather Stations Pressure Air Temp Water Temp Dewpoint Dewpoint Depression Visibility Wind Speed Wind Dir Waves Ship Positions

Abis Bremen

Last reported at 2017-Jun-26 10:30 UTC. Time now 2017-Jun-26 10:36 UTC.
Position N 49°57' W 002°57'.

Length 90 m; draft 5.2 m.

Type: Ship. MMSI: 246778880.

Date/timePositionNaut miles runAvg speedWind from/ knotsBaromVisibWave heightAir tempDewpointWater temp
2017-Jun-26 10:30N 49°57' W 002°57'5 9.3
2017-Jun-26 09:57N 49°58' W 002°49'11 8.3
2017-Jun-26 08:34N 50°02' W 002°32'2 8.1
2017-Jun-26 08:19N 50°02' W 002°29'3 8.2
2017-Jun-26 07:57N 50°03' W 002°25'4 8.5
2017-Jun-26 07:30N 50°04' W 002°19'5 9.1
2017-Jun-26 06:55N 50°06' W 002°11'4 9.9
2017-Jun-26 06:30N 50°07' W 002°05'510.8
2017-Jun-26 06:00N 50°09' W 001°57'611.9
2017-Jun-26 05:30N 50°11' W 001°48'612.8
2017-Jun-26 05:00N 50°12' W 001°39'713.6
2017-Jun-26 04:30N 50°14' W 001°28'714.1
2017-Jun-26 04:00N 50°16' W 001°18'714.4
2017-Jun-26 03:30N 50°19' W 001°07'714.8
2017-Jun-26 03:00N 50°21' W 000°56'713.8
2017-Jun-26 02:30N 50°23' W 000°46'713.1
2017-Jun-26 01:56N 50°25' W 000°34'712.4
2017-Jun-26 01:24N 50°27' W 000°24'511.7
2017-Jun-26 01:00N 50°28' W 000°17'910.7
2017-Jun-26 00:11N 50°31' W 000°04'2 9.8
2017-Jun-25 23:59N 50°31' W 000°01'4 9.4
2017-Jun-25 23:30N 50°33' E 000°05'4 8.8
2017-Jun-25 23:00N 50°34' E 000°12'4 8.1
2017-Jun-25 22:30N 50°35' E 000°18'4 7.6
2017-Jun-25 22:00N 50°36' E 000°24'4 7.5
2017-Jun-25 21:30N 50°37' E 000°29'4 8.0
2017-Jun-25 21:01N 50°39' E 000°35'4 8.7
2017-Jun-25 20:30N 50°41' E 000°41'5 9.7
2017-Jun-25 20:00N 50°44' E 000°47'1311.0
2017-Jun-25 18:47N 50°52' E 001°04'412.0
2017-Jun-25 18:28N 50°55' E 001°09'510.5
2017-Jun-25 18:00N 50°58' E 001°15'510.8
2017-Jun-25 17:30N 51°01' E 001°21'510.0
2017-Jun-25 17:00N 51°04' E 001°27'4 8.9
2017-Jun-25 16:30N 51°07' E 001°33'4 8.0
2017-Jun-25 16:00N 51°10' E 001°37'4 7.4
2017-Jun-25 15:30N 51°14' E 001°38'4 8.6
2017-Jun-25 15:00N 51°18' E 001°36'4 8.5
2017-Jun-25 14:30N 51°22' E 001°34'10 9.8
2017-Jun-25 13:29N 51°28' E 001°21'510.1
2017-Jun-25 13:00N 51°29' E 001°14'5 9.9
2017-Jun-25 12:30N 51°29' E 001°06'5 9.7
2017-Jun-25 12:00N 51°29' E 000°58'4 8.8
2017-Jun-25 11:30N 51°28' E 000°51'4 8.9
2017-Jun-25 11:00N 51°27' E 000°44'3 5.0
2017-Jun-25 10:30N 51°24' E 000°43'2 0.6
2017-Jun-25 07:39N 51°23' E 000°46'0 0.0
2017-Jun-25 07:12N 51°23' E 000°46'0 0.0
2017-Jun-25 06:51N 51°23' E 000°46'0 0.0
2017-Jun-25 06:18N 51°23' E 000°46'0 0.0
2017-Jun-25 05:48N 51°23' E 000°46'0 0.0
2017-Jun-25 05:03N 51°23' E 000°46'0 0.0
2017-Jun-25 04:45N 51°23' E 000°46'0 0.0
2017-Jun-24 17:21N 51°23' E 000°46'0 0.0
2017-Jun-24 17:00N 51°23' E 000°46'0 0.0
2017-Jun-24 16:30N 51°23' E 000°46'0 0.0
2017-Jun-24 15:59N 51°23' E 000°46'0 0.0
2017-Jun-24 15:28N 51°23' E 000°46'0 0.0
2017-Jun-24 14:59N 51°23' E 000°46'0 0.0
2017-Jun-24 14:25N 51°23' E 000°46'0 0.0
2017-Jun-24 11:42N 51°23' E 000°46'0 0.6
2017-Jun-24 11:30N 51°23' E 000°46'2 4.7
2017-Jun-24 11:01N 51°25' E 000°43'3 6.6
2017-Jun-24 10:31N 51°28' E 000°46'510.8
2017-Jun-24 10:01N 51°30' E 000°54'2 4.6
2017-Jun-24 09:30N 51°30' E 000°58'0 0.3
2017-Jun-24 08:52N 51°30' E 000°58'0 0.2
2017-Jun-24 07:58N 51°30' E 000°58'0 0.2
2017-Jun-24 07:28N 51°30' E 000°58'0 0.0
2017-Jun-24 06:58N 51°30' E 000°58'0 0.0
2017-Jun-24 06:28N 51°30' E 000°58'0 0.0
2017-Jun-24 05:58N 51°30' E 000°58'0 0.0
2017-Jun-24 05:22N 51°30' E 000°58'0 0.0
2017-Jun-24 04:58N 51°30' E 000°58'0 0.0
2017-Jun-24 04:28N 51°30' E 000°58'0 0.0
2017-Jun-24 03:40N 51°30' E 000°58'0 0.0
2017-Jun-24 03:20N 51°30' E 000°58'0 0.3
2017-Jun-24 03:00N 51°30' E 000°58'0 0.1
2017-Jun-24 02:29N 51°30' E 000°59'0 0.1
2017-Jun-24 01:59N 51°30' E 000°59'0 0.0
2017-Jun-24 01:23N 51°30' E 000°59'0 0.1
2017-Jun-24 00:59N 51°30' E 000°59'0 0.0
2017-Jun-24 00:08N 51°30' E 000°59'0 0.2
2017-Jun-23 23:53N 51°30' E 000°58'0 0.2
2017-Jun-23 23:29N 51°30' E 000°58'0 0.0
2017-Jun-23 22:59N 51°30' E 000°58'0 0.0
2017-Jun-23 22:29N 51°30' E 000°58'0 0.0
2017-Jun-23 21:59N 51°30' E 000°58'0 0.0
2017-Jun-23 21:29N 51°30' E 000°58'0 0.0
2017-Jun-23 20:59N 51°30' E 000°58'0 0.0
2017-Jun-23 20:29N 51°30' E 000°58'0 0.0
2017-Jun-23 19:59N 51°30' E 000°58'0 0.1
2017-Jun-23 19:29N 51°30' E 000°58'0 0.3
2017-Jun-23 18:59N 51°30' E 000°58'0 0.1
2017-Jun-23 18:23N 51°30' E 000°59'0 0.0
2017-Jun-23 17:59N 51°30' E 000°59'0 0.0
2017-Jun-23 17:29N 51°30' E 000°59'0 0.1
2017-Jun-23 16:59N 51°30' E 000°59'0 0.0
2017-Jun-23 16:29N 51°30' E 000°59'0 0.0
2017-Jun-23 16:00N 51°30' E 000°59'0 0.1
2017-Jun-23 15:30N 51°30' E 000°58'0 0.0
2017-Jun-23 15:00N 51°30' E 000°58'4 3.5
2017-Jun-23 13:59N 51°33' E 001°03'4 7.2
2017-Jun-23 13:30N 51°34' E 001°08'4 7.2
2017-Jun-23 13:00N 51°36' E 001°13'4 7.4
2017-Jun-23 12:30N 51°39' E 001°16'4 7.2
2017-Jun-23 12:00N 51°42' E 001°21'4 7.7
2017-Jun-23 11:30N 51°44' E 001°25'4 8.4
2017-Jun-23 11:00N 51°47' E 001°30'5 9.0
2017-Jun-23 10:30N 51°50' E 001°36'5 9.6
2017-Jun-23 10:00N 51°53' E 001°42'510.1
2017-Jun-23 09:30N 51°57' E 001°46'510.7
2017-Jun-23 09:00N 51°60' E 001°54'510.7
2017-Jun-23 08:30N 52°03' E 002°01'510.9
2017-Jun-23 08:00N 52°05' E 002°09'510.9
2017-Jun-23 07:30N 52°08' E 002°16'510.2
2017-Jun-23 06:58N 52°11' E 002°24'2610.3
2017-Jun-23 04:29N 52°25' E 002°60'5 9.5
2017-Jun-23 03:56N 52°28' E 003°07'7 9.2
2017-Jun-23 03:12N 52°31' E 003°16'4 8.9
2017-Jun-23 02:46N 52°33' E 003°22'2 8.5
2017-Jun-23 02:28N 52°35' E 003°25'5 8.5
2017-Jun-23 01:55N 52°38' E 003°30'5 8.3
2017-Jun-23 01:19N 52°42' E 003°35'3 8.2
2017-Jun-23 00:59N 52°44' E 003°38'4 8.2
2017-Jun-23 00:29N 52°47' E 003°43'4 8.5
2017-Jun-22 23:58N 52°50' E 003°48'5 9.1
2017-Jun-22 23:26N 52°53' E 003°54'7 9.6
2017-Jun-22 22:42N 52°58' E 004°03'2 9.8
2017-Jun-22 22:29N 52°59' E 004°05'5 9.8
2017-Jun-22 21:57N 53°03' E 004°12'5 9.5
2017-Jun-22 21:28N 53°06' E 004°18'5 9.5
2017-Jun-22 20:59N 53°09' E 004°24'5 9.4
2017-Jun-22 20:30N 53°13' E 004°28'6 9.7
2017-Jun-22 19:55N 53°18' E 004°31'6 9.6
2017-Jun-22 19:19N 53°23' E 004°35'4 9.2
2017-Jun-22 18:50N 53°27' E 004°38'3 8.3
2017-Jun-22 18:30N 53°28' E 004°42'4 8.2
2017-Jun-22 18:00N 53°30' E 004°48'4 8.0
2017-Jun-22 17:30N 53°31' E 004°54'4 8.1
2017-Jun-22 17:00N 53°33' E 005°01'4 7.9
2017-Jun-22 16:30N 53°34' E 005°07'7 7.7
2017-Jun-22 15:36N 53°37' E 005°18'1 8.0
2017-Jun-22 15:29N 53°37' E 005°20'4 8.3
2017-Jun-22 14:57N 53°38' E 005°27'4 9.0
2017-Jun-22 14:30N 53°39' E 005°33'1010.0
2017-Jun-22 13:30N 53°42' E 005°49'510.5
2017-Jun-22 13:00N 53°44' E 005°57'610.8
2017-Jun-22 12:29N 53°46' E 006°07'510.9
2017-Jun-22 12:00N 53°47' E 006°15'710.5
2017-Jun-22 11:22N 53°49' E 006°26'410.6
2017-Jun-22 10:57N 53°51' E 006°33'510.6
2017-Jun-22 10:30N 53°52' E 006°41'510.5
2017-Jun-22 10:00N 53°53' E 006°49'22 9.5
2017-Jun-22 07:39N 53°59' E 007°26'1 8.1
2017-Jun-22 07:29N 53°59' E 007°28'4 8.0
2017-Jun-22 06:59N 54°00' E 007°35'4 8.1
2017-Jun-22 06:30N 54°01' E 007°41'4 8.3
2017-Jun-22 06:00N 54°01' E 007°48'4 8.5
2017-Jun-22 05:30N 54°01' E 007°56'4 8.7
2017-Jun-22 05:00N 54°01' E 008°03'4 8.5
2017-Jun-22 04:30N 54°00' E 008°10'5 9.3
2017-Jun-22 04:00N 53°60' E 008°18'611.1
2017-Jun-22 03:30N 53°59' E 008°27'611.7
2017-Jun-22 03:00N 53°58' E 008°37'612.9
2017-Jun-22 02:31N 53°52' E 008°43'612.1
2017-Jun-22 02:01N 53°51' E 008°53'612.4
2017-Jun-22 01:30N 53°52' E 009°03'510.9
2017-Jun-22 01:00N 53°53' E 009°13'510.1
2017-Jun-22 00:30N 53°51' E 009°20'5 9.4
2017-Jun-22 00:00N 53°46' E 009°24'4 8.4
2017-Jun-21 23:30N 53°43' E 009°28'4 7.8
2017-Jun-21 23:00N 53°40' E 009°31'4 7.5
2017-Jun-21 22:30N 53°37' E 009°35'4 7.1
2017-Jun-21 22:00N 53°34' E 009°39'3 6.7
2017-Jun-21 21:30N 53°34' E 009°45'3 6.2
2017-Jun-21 21:00N 53°33' E 009°50'3 6.1
2017-Jun-21 20:30N 53°32' E 009°55'4 7.3
2017-Jun-21 20:00N 53°29' E 009°57'1 1.6
2017-Jun-21 19:29N 53°29' E 009°58'0 0.0
2017-Jun-21 18:59N 53°29' E 009°58'0 0.0
2017-Jun-21 18:29N 53°29' E 009°58'0 0.0
2017-Jun-21 17:59N 53°29' E 009°58'0 0.0
2017-Jun-21 17:29N 53°29' E 009°58'0 0.2
2017-Jun-21 16:59N 53°28' E 009°58'0 0.0
2017-Jun-21 16:29N 53°28' E 009°58'0 0.0
2017-Jun-21 15:59N 53°28' E 009°58'0 0.0
2017-Jun-21 15:29N 53°28' E 009°58'0 0.0
2017-Jun-21 14:59N 53°28' E 009°58'0 0.0
2017-Jun-21 14:29N 53°28' E 009°58'0 0.0
2017-Jun-21 13:29N 53°28' E 009°58'0 0.0
2017-Jun-21 12:59N 53°28' E 009°58'0 0.0
2017-Jun-21 12:29N 53°28' E 009°58'0 0.0
2017-Jun-21 11:59N 53°28' E 009°58'0 0.0
2017-Jun-21 11:29N 53°28' E 009°58'0 0.0
2017-Jun-21 10:59N 53°28' E 009°58'0 0.0
2017-Jun-21 10:29N 53°28' E 009°58'0 0.0
2017-Jun-21 09:59N 53°28' E 009°58'0 0.0
2017-Jun-21 09:29N 53°28' E 009°58'0 0.0
2017-Jun-21 08:59N 53°28' E 009°58'0 0.0
2017-Jun-21 08:29N 53°28' E 009°58'0 0.0
2017-Jun-21 07:59N 53°28' E 009°58'0 0.0
2017-Jun-21 07:30N 53°28' E 009°58'0 0.0
2017-Jun-21 07:00N 53°28' E 009°58'0 0.6
2017-Jun-21 06:30N 53°29' E 009°58'2 3.1
2017-Jun-21 06:00N 53°30' E 009°57'2 4.2
2017-Jun-21 05:30N 53°32' E 009°56'4 7.6
2017-Jun-21 05:01N 53°33' E 009°50'5 9.1
2017-Jun-21 04:30N 53°34' E 009°42'5 9.1
2017-Jun-21 04:00N 53°36' E 009°36'2 3.9
2017-Jun-21 03:30N 53°37' E 009°33'0 0.0
2017-Jun-21 03:00N 53°37' E 009°33'0 0.5
2017-Jun-21 02:30N 53°37' E 009°33'2 3.4
2017-Jun-21 02:01N 53°39' E 009°31'4 8.9
2017-Jun-21 01:30N 53°43' E 009°29'4 8.9
2017-Jun-21 01:01N 53°46' E 009°24'4 8.9
2017-Jun-21 00:31N 53°50' E 009°21'5 9.3
2017-Jun-21 00:00N 53°53' E 009°14'4 8.5
2017-Jun-20 23:30N 53°53' E 009°07'5 9.1
2017-Jun-20 23:00N 53°51' E 008°59'5 9.7
2017-Jun-20 22:30N 53°50' E 008°51'5 9.5
2017-Jun-20 22:00N 53°52' E 008°44'510.2
2017-Jun-20 21:30N 53°56' E 008°39'20 9.4
2017-Jun-20 19:20N 53°60' E 008°05'3 6.9
2017-Jun-20 18:54N 54°02' E 008°07'1 0.1
2017-Jun-20 13:42N 54°03' E 008°08'0 0.0
2017-Jun-20 13:30N 54°03' E 008°08'0 0.0
2017-Jun-20 11:00N 54°03' E 008°08'0 0.0
2017-Jun-20 10:30N 54°03' E 008°08'0 0.0
2017-Jun-20 10:00N 54°03' E 008°08'0 0.0
2017-Jun-20 09:21N 54°03' E 008°08'0 0.0
2017-Jun-20 08:54N 54°03' E 008°08'0 0.0
2017-Jun-20 08:27N 54°03' E 008°08'0 0.0
2017-Jun-20 07:51N 54°03' E 008°08'0 0.0
2017-Jun-20 07:27N 54°03' E 008°08'0 0.0
2017-Jun-20 03:54N 54°03' E 008°08'0 0.1
2017-Jun-20 03:24N 54°03' E 008°08'0 0.0
2017-Jun-20 00:03N 54°03' E 008°08'0 0.0
2017-Jun-19 23:54N 54°03' E 008°08'0 0.0
2017-Jun-19 23:30N 54°03' E 008°08'0 0.0
2017-Jun-19 23:00N 54°03' E 008°08'0 0.0
2017-Jun-19 22:24N 54°03' E 008°08'0 0.0
2017-Jun-19 22:00N 54°03' E 008°08'0 0.0
2017-Jun-19 21:15N 54°03' E 008°08'0 0.0
2017-Jun-19 21:00N 54°03' E 008°08'0 0.0
2017-Jun-19 20:12N 54°03' E 008°08'0 0.0
2017-Jun-19 20:00N 54°03' E 008°08'0 0.0
2017-Jun-19 19:30N 54°03' E 008°08'0 0.0
2017-Jun-19 17:36N 54°03' E 008°08'0 0.0
2017-Jun-19 17:21N 54°03' E 008°08'0 0.0
2017-Jun-19 16:57N 54°03' E 008°08'0 0.0
2017-Jun-19 08:06N 54°03' E 008°08'0 0.0
2017-Jun-19 07:57N 54°03' E 008°08'0 0.0
2017-Jun-19 07:24N 54°03' E 008°08'0 0.0
2017-Jun-19 06:57N 54°03' E 008°08'0 0.0
2017-Jun-19 06:27N 54°03' E 008°08'0 0.0
2017-Jun-19 06:00N 54°03' E 008°08'0 0.0
2017-Jun-19 05:31N 54°03' E 008°08'3 4.6
2017-Jun-19 04:55N 54°02' E 008°04'3 6.7
2017-Jun-19 04:31N 53°60' E 008°01'4 7.4
2017-Jun-19 03:59N 53°57' E 007°55'4 8.7
2017-Jun-19 03:28N 53°56' E 007°48'4 9.0
2017-Jun-19 02:59N 53°55' E 007°41'59 7.7
2017-Jun-18 19:16N 53°41' E 006°04'3 6.4
2017-Jun-18 18:48N 53°40' E 005°59'2 6.3
2017-Jun-18 18:30N 53°39' E 005°56'3 6.4
2017-Jun-18 18:00N 53°38' E 005°51'3 6.8
2017-Jun-18 17:30N 53°37' E 005°46'4 7.1
2017-Jun-18 16:59N 53°36' E 005°40'4 7.6
2017-Jun-18 16:29N 53°35' E 005°34'6 7.7
2017-Jun-18 15:44N 53°33' E 005°24'2 7.7
2017-Jun-18 15:31N 53°32' E 005°22'4 7.8
2017-Jun-18 14:59N 53°31' E 005°15'9 8.6
2017-Jun-18 13:59N 53°28' E 005°02'4 9.2
2017-Jun-18 13:30N 53°26' E 004°55'7 9.1
2017-Jun-18 12:43N 53°23' E 004°44'2 7.9
2017-Jun-18 12:30N 53°22' E 004°42'5 9.1
2017-Jun-18 12:00N 53°18' E 004°39'5 9.5
2017-Jun-18 11:30N 53°13' E 004°36'5 9.6
2017-Jun-18 11:01N 53°09' E 004°32'5 9.5
2017-Jun-18 10:31N 53°05' E 004°28'5 9.2
2017-Jun-18 10:01N 53°01' E 004°24'5 9.0
2017-Jun-18 09:30N 52°57' E 004°21'5 9.2
2017-Jun-18 09:00N 52°53' E 004°18'4 8.8
2017-Jun-18 08:31N 52°49' E 004°14'4 8.5
2017-Jun-18 08:01N 52°46' E 004°09'4 8.4
2017-Jun-18 07:30N 52°43' E 004°05'4 8.4
2017-Jun-18 07:00N 52°40' E 003°60'510.0
2017-Jun-18 06:30N 52°36' E 003°54'4 8.7
2017-Jun-18 06:00N 52°33' E 003°49'4 8.1
2017-Jun-18 05:30N 52°30' E 003°44'4 7.9
2017-Jun-18 04:59N 52°27' E 003°39'4 7.8
2017-Jun-18 04:30N 52°25' E 003°35'4 7.5
2017-Jun-18 04:00N 52°22' E 003°31'4 7.4
2017-Jun-18 03:30N 52°20' E 003°27'4 7.2
2017-Jun-18 03:00N 52°17' E 003°22'4 7.2
2017-Jun-18 02:27N 52°14' E 003°18'3 7.1
2017-Jun-18 02:00N 52°12' E 003°14'4 7.1
2017-Jun-18 01:30N 52°09' E 003°10'4 7.3
2017-Jun-18 01:00N 52°07' E 003°06'4 7.6
2017-Jun-18 00:28N 52°04' E 003°02'4 7.8
2017-Jun-18 00:01N 52°01' E 002°58'4 7.8
2017-Jun-17 23:30N 51°58' E 002°54'4 8.0
2017-Jun-17 22:57N 51°54' E 002°49'11 8.7
2017-Jun-17 21:40N 51°46' E 002°38'1 8.8
2017-Jun-17 21:30N 51°45' E 002°36'4 9.0
2017-Jun-17 21:00N 51°41' E 002°32'4 8.9
2017-Jun-17 20:31N 51°38' E 002°27'5 9.2
2017-Jun-17 20:01N 51°34' E 002°23'5 9.5
2017-Jun-17 19:30N 51°30' E 002°18'5 9.2
2017-Jun-17 19:01N 51°26' E 002°14'5 9.5
2017-Jun-17 18:30N 51°23' E 002°10'5 9.8
2017-Jun-17 18:01N 51°18' E 002°07'5 9.9
2017-Jun-17 17:30N 51°14' E 002°03'5 9.9
2017-Jun-17 17:00N 51°12' E 001°56'5 9.8
2017-Jun-17 16:30N 51°09' E 001°49'5 9.5
2017-Jun-17 16:00N 51°06' E 001°43'4 9.0
2017-Jun-17 15:30N 51°03' E 001°37'4 8.6
2017-Jun-17 15:01N 51°01' E 001°32'7 7.4
2017-Jun-17 14:00N 50°55' E 001°25'4 7.1
2017-Jun-17 13:30N 50°51' E 001°23'3 6.9
2017-Jun-17 13:00N 50°48' E 001°22'3 6.8
2017-Jun-17 12:30N 50°45' E 001°20'4 6.4
2017-Jun-17 11:58N 50°42' E 001°18'28 7.6
2017-Jun-17 08:14N 50°28' E 000°38'3 7.7
2017-Jun-17 07:51N 50°27' E 000°34'18 8.5
2017-Jun-17 05:43N 50°23' E 000°07'2 9.1
2017-Jun-17 05:30N 50°22' E 000°04'5 9.3
2017-Jun-17 05:01N 50°21' W 000°03'5 9.4
2017-Jun-17 04:30N 50°20' W 000°11'5 9.6
2017-Jun-17 04:01N 50°18' W 000°18'510.0
2017-Jun-17 03:31N 50°17' W 000°25'510.5
2017-Jun-17 03:00N 50°16' W 000°33'510.8
2017-Jun-17 02:30N 50°14' W 000°42'611.4
2017-Jun-17 02:01N 50°13' W 000°50'611.7
2017-Jun-17 01:31N 50°11' W 000°59'612.0
2017-Jun-17 01:01N 50°10' W 001°08'612.0
2017-Jun-17 00:31N 50°08' W 001°17'612.1
2017-Jun-17 00:01N 50°06' W 001°26'611.8
2017-Jun-16 23:30N 50°05' W 001°35'611.7
2017-Jun-16 23:01N 50°03' W 001°44'611.2
2017-Jun-16 22:30N 50°02' W 001°52'610.8
2017-Jun-16 21:59N 50°01' W 002°01'510.3
2017-Jun-16 21:30N 49°59' W 002°08'10 9.4
2017-Jun-16 20:24N 49°56' W 002°24'3 8.4
2017-Jun-16 20:00N 49°55' W 002°29'4 8.0
2017-Jun-16 19:30N 49°54' W 002°34'4 7.8
2017-Jun-16 19:01N 49°53' W 002°40'4 7.7
2017-Jun-16 18:31N 49°52' W 002°46'4 7.8
2017-Jun-16 18:01N 49°51' W 002°52'4 8.2
2017-Jun-16 17:31N 49°51' W 002°58'4 8.5
2017-Jun-16 17:01N 49°52' W 003°05'4 8.8
2017-Jun-16 16:31N 49°53' W 003°11'5 9.0
2017-Jun-16 16:00N 49°54' W 003°18'5 9.0
2017-Jun-16 15:31N 49°55' W 003°25'5 9.1
2017-Jun-16 15:01N 49°57' W 003°32'5 9.4
2017-Jun-16 14:31N 49°58' W 003°39'11 9.7
2017-Jun-16 13:22N 50°00' W 003°56'4 9.9
2017-Jun-16 13:00N 50°01' W 004°01'5 9.9
2017-Jun-16 12:31N 50°02' W 004°08'510.0
2017-Jun-16 12:01N 50°03' W 004°16'510.0
2017-Jun-16 11:30N 50°05' W 004°24'510.1
2017-Jun-16 11:00N 50°06' W 004°31'510.0
2017-Jun-16 10:31N 50°07' W 004°39'  

Dump ship's entire track history